VIR132 EGKK-EHAM
Flight info
| Callsign | VIR132 |
|---|---|
| Flight time | 0h 42m |
| Altitude | 29000 |
| Route | FRANE M604 GASBA M197 REDFA |
| Aircraft | A346/H-SDE2E3FGHIJ3J4J5M1RWXY/LB1D1 |
Departure
| Time | 2026-05-06 19:10 |
|---|---|
| Airport | London Gatwick Airport (EGKK) |
Arrival
| Time | 2026-05-06 19:53 |
|---|---|
| Airport | Amsterdam Airport Schiphol (EHAM) |
| Time | Latitude | Longitude | Altitude | Speed | Heading |
|---|---|---|---|---|---|
| 2026-05-06 18:25 | 51.15611 | -0.16785 | 213 ft | 0 kts | 167° |
| 2026-05-06 18:44 | 51.15610 | -0.16785 | 213 ft | 0 kts | 167° |
| 2026-05-06 18:45 | 51.15610 | -0.16784 | 213 ft | 0 kts | 167° |
| 2026-05-06 18:46 | 51.15624 | -0.16789 | 220 ft | 0 kts | 167° |
| 2026-05-06 18:46 | 51.15646 | -0.16797 | 220 ft | 0 kts | 167° |
| 2026-05-06 18:46 | 51.15669 | -0.16805 | 223 ft | 0 kts | 167° |
| 2026-05-06 18:46 | 51.15676 | -0.16808 | 224 ft | 0 kts | 167° |
| 2026-05-06 18:47 | 51.15676 | -0.16807 | 224 ft | 0 kts | 167° |
| 2026-05-06 18:48 | 51.15686 | -0.16811 | 224 ft | 0 kts | 167° |
| 2026-05-06 18:48 | 51.15694 | -0.16817 | 223 ft | 0 kts | 169° |
| 2026-05-06 18:48 | 51.15691 | -0.16816 | 222 ft | 0 kts | 169° |
| 2026-05-06 18:50 | 51.15690 | -0.16815 | 222 ft | 0 kts | 171° |
| 2026-05-06 18:51 | 51.15687 | -0.16816 | 222 ft | 0 kts | 181° |
| 2026-05-06 18:51 | 51.15686 | -0.16816 | 222 ft | 0 kts | 184° |
| 2026-05-06 18:52 | 51.15685 | -0.16816 | 222 ft | 0 kts | 191° |
| 2026-05-06 18:52 | 51.15683 | -0.16818 | 221 ft | 1 kts | 202° |
| 2026-05-06 18:52 | 51.15677 | -0.16828 | 218 ft | 3 kts | 237° |
| 2026-05-06 18:53 | 51.15662 | -0.16897 | 221 ft | 10 kts | 255° |
| 2026-05-06 18:53 | 51.15647 | -0.17001 | 218 ft | 2 kts | 259° |
| 2026-05-06 18:53 | 51.15632 | -0.17128 | 220 ft | 16 kts | 258° |
| 2026-05-06 18:53 | 51.15610 | -0.17278 | 215 ft | 19 kts | 256° |
| 2026-05-06 18:54 | 51.15567 | -0.17443 | 219 ft | 20 kts | 234° |
| 2026-05-06 18:54 | 51.15520 | -0.17650 | 217 ft | 22 kts | 257° |
| 2026-05-06 18:54 | 51.15493 | -0.17845 | 215 ft | 20 kts | 258° |
| 2026-05-06 18:54 | 51.15467 | -0.18039 | 219 ft | 23 kts | 258° |
| 2026-05-06 18:55 | 51.15443 | -0.18207 | 218 ft | 15 kts | 253° |
| 2026-05-06 18:55 | 51.15392 | -0.18271 | 220 ft | 11 kts | 184° |
| 2026-05-06 18:55 | 51.15324 | -0.18261 | 219 ft | 11 kts | 173° |
| 2026-05-06 18:55 | 51.15258 | -0.18237 | 218 ft | 13 kts | 167° |
| 2026-05-06 18:56 | 51.15193 | -0.18269 | 221 ft | 11 kts | 243° |
| 2026-05-06 18:56 | 51.15177 | -0.18388 | 219 ft | 14 kts | 258° |
| 2026-05-06 18:56 | 51.15156 | -0.18548 | 215 ft | 18 kts | 258° |
| 2026-05-06 18:56 | 51.15132 | -0.18729 | 213 ft | 21 kts | 258° |
| 2026-05-06 18:57 | 51.15103 | -0.18939 | 215 ft | 24 kts | 257° |
| 2026-05-06 18:57 | 51.15069 | -0.19185 | 216 ft | 26 kts | 257° |
| 2026-05-06 18:57 | 51.15034 | -0.19440 | 218 ft | 2 kts | 258° |
| 2026-05-06 18:57 | 51.14998 | -0.19704 | 218 ft | 29 kts | 257° |
| 2026-05-06 18:58 | 51.14955 | -0.20012 | 220 ft | 31 kts | 257° |
| 2026-05-06 18:58 | 51.14916 | -0.20289 | 213 ft | 2 kts | 257° |
| 2026-05-06 18:58 | 51.14878 | -0.20565 | 218 ft | 30 kts | 258° |
| 2026-05-06 18:58 | 51.14840 | -0.20846 | 221 ft | 30 kts | 257° |
| 2026-05-06 18:59 | 51.14807 | -0.21083 | 219 ft | 2 kts | 256° |
| 2026-05-06 18:59 | 51.14781 | -0.21221 | 216 ft | 10 kts | 253° |
| 2026-05-06 18:59 | 51.14771 | -0.21278 | 213 ft | 2 kts | 256° |
| 2026-05-06 18:59 | 51.14769 | -0.21288 | 217 ft | 2 kts | 256° |
| 2026-05-06 19:00 | 51.14764 | -0.21325 | 217 ft | 5 kts | 256° |
| 2026-05-06 19:00 | 51.14752 | -0.21370 | 221 ft | 3 kts | 231° |
| 2026-05-06 19:00 | 51.14749 | -0.21375 | 221 ft | 0 kts | 227° |
| 2026-05-06 19:06 | 51.14748 | -0.21377 | 221 ft | 1 kts | 226° |
| 2026-05-06 19:06 | 51.14737 | -0.21389 | 222 ft | 3 kts | 204° |
| 2026-05-06 19:07 | 51.14708 | -0.21395 | 222 ft | 2 kts | 178° |
| 2026-05-06 19:07 | 51.14682 | -0.21379 | 219 ft | 8 kts | 152° |
| 2026-05-06 19:07 | 51.14616 | -0.21333 | 219 ft | 11 kts | 161° |
| 2026-05-06 19:07 | 51.14551 | -0.21280 | 223 ft | 13 kts | 134° |
| 2026-05-06 19:08 | 51.14526 | -0.21164 | 222 ft | 15 kts | 88° |
| 2026-05-06 19:08 | 51.14535 | -0.21070 | 219 ft | 0 kts | 78° |
| 2026-05-06 19:09 | 51.14535 | -0.21069 | 215 ft | 0 kts | 78° |
| 2026-05-06 19:10 | 51.14562 | -0.20866 | 216 ft | 2 kts | 78° |
| 2026-05-06 19:10 | 51.14682 | -0.19996 | 220 ft | 132 kts | 77° |
| 2026-05-06 19:10 | 51.14898 | -0.18418 | 311 ft | 187 kts | 77° |
| 2026-05-06 19:10 | 51.15157 | -0.16522 | 1102 ft | 198 kts | 76° |
| 2026-05-06 19:11 | 51.15409 | -0.14643 | 1985 ft | 208 kts | 75° |
| 2026-05-06 19:11 | 51.15663 | -0.12758 | 2846 ft | 205 kts | 75° |
| 2026-05-06 19:11 | 51.15951 | -0.10749 | 3578 ft | 215 kts | 74° |
| 2026-05-06 19:11 | 51.16275 | -0.08516 | 4178 ft | 230 kts | 75° |
| 2026-05-06 19:12 | 51.16618 | -0.06074 | 4708 ft | 251 kts | 77° |
| 2026-05-06 19:12 | 51.16851 | -0.03526 | 4990 ft | 266 kts | 83° |
| 2026-05-06 19:12 | 51.16898 | -0.00786 | 5499 ft | 279 kts | 89° |
| 2026-05-06 19:12 | 51.16852 | 0.02080 | 6575 ft | 275 kts | 91° |
| 2026-05-06 19:13 | 51.16785 | 0.04905 | 7559 ft | 277 kts | 91° |
| 2026-05-06 19:13 | 51.16712 | 0.07876 | 8316 ft | 284 kts | 91° |
| 2026-05-06 19:13 | 51.16648 | 0.10853 | 8796 ft | 288 kts | 90° |
| 2026-05-06 19:13 | 51.16625 | 0.13770 | 9183 ft | 297 kts | 83° |
| 2026-05-06 19:14 | 51.17137 | 0.16578 | 9969 ft | 296 kts | 58° |
| 2026-05-06 19:14 | 51.18386 | 0.18937 | 10890 ft | 294 kts | 35° |
| 2026-05-06 19:14 | 51.20113 | 0.20548 | 11493 ft | 306 kts | 24° |
| 2026-05-06 19:14 | 51.22005 | 0.21905 | 11993 ft | 323 kts | 21° |
| 2026-05-06 19:15 | 51.23963 | 0.23230 | 12487 ft | 339 kts | 21° |
| 2026-05-06 19:15 | 51.26017 | 0.24597 | 12961 ft | 355 kts | 21° |
| 2026-05-06 19:15 | 51.28217 | 0.26069 | 13416 ft | 372 kts | 22° |
| 2026-05-06 19:15 | 51.30393 | 0.27961 | 14112 ft | 379 kts | 30° |
| 2026-05-06 19:16 | 51.32474 | 0.30043 | 15158 ft | 354 kts | 31° |
| 2026-05-06 19:16 | 51.34362 | 0.31974 | 16000 ft | 325 kts | 30° |
| 2026-05-06 19:16 | 51.36206 | 0.33840 | 16637 ft | 335 kts | 30° |
| 2026-05-06 19:16 | 51.38138 | 0.35764 | 17065 ft | 350 kts | 30° |
| 2026-05-06 19:17 | 51.40110 | 0.37710 | 17597 ft | 362 kts | 30° |
| 2026-05-06 19:17 | 51.42212 | 0.39773 | 17985 ft | 378 kts | 30° |
| 2026-05-06 19:17 | 51.44344 | 0.41864 | 18302 ft | 394 kts | 30° |
| 2026-05-06 19:17 | 51.46631 | 0.44105 | 18583 ft | 409 kts | 30° |
| 2026-05-06 19:18 | 51.48994 | 0.46425 | 19078 ft | 417 kts | 30° |
| 2026-05-06 19:18 | 51.51370 | 0.48759 | 19770 ft | 420 kts | 30° |
| 2026-05-06 19:18 | 51.53812 | 0.51163 | 20468 ft | 424 kts | 30° |
| 2026-05-06 19:18 | 51.56267 | 0.53581 | 21110 ft | 429 kts | 30° |
| 2026-05-06 19:19 | 51.58709 | 0.55989 | 21749 ft | 434 kts | 30° |
| 2026-05-06 19:19 | 51.61121 | 0.58370 | 22360 ft | 438 kts | 30° |
| 2026-05-06 19:19 | 51.63495 | 0.60716 | 22959 ft | 442 kts | 30° |
| 2026-05-06 19:19 | 51.66008 | 0.63203 | 23562 ft | 447 kts | 30° |
| 2026-05-06 19:20 | 51.68584 | 0.65756 | 24070 ft | 452 kts | 30° |
| 2026-05-06 19:20 | 51.71153 | 0.68305 | 24600 ft | 455 kts | 30° |
| 2026-05-06 19:20 | 51.73751 | 0.70888 | 25151 ft | 459 kts | 30° |
| 2026-05-06 19:20 | 51.75612 | 0.72740 | 25533 ft | 461 kts | 30° |
| 2026-05-06 19:21 | 51.77205 | 0.74326 | 25855 ft | 463 kts | 30° |
| 2026-05-06 19:21 | 51.79700 | 0.77037 | 26383 ft | 467 kts | 38° |
| 2026-05-06 19:21 | 51.81212 | 0.79408 | 26855 ft | 468 kts | 47° |
| 2026-05-06 19:22 | 51.82406 | 0.81993 | 27342 ft | 467 kts | 57° |
| 2026-05-06 19:22 | 51.83730 | 0.86370 | 28084 ft | 467 kts | 69° |
| 2026-05-06 19:23 | 51.84696 | 0.91165 | 28716 ft | 469 kts | 72° |
| 2026-05-06 19:23 | 51.85587 | 0.96009 | 29001 ft | 475 kts | 73° |
| 2026-05-06 19:23 | 51.86481 | 1.00922 | 28991 ft | 476 kts | 73° |
| 2026-05-06 19:24 | 51.88305 | 1.10732 | 28994 ft | 474 kts | 72° |
| 2026-05-06 19:24 | 51.90180 | 1.20614 | 28998 ft | 474 kts | 72° |
| 2026-05-06 19:25 | 51.92068 | 1.30532 | 28996 ft | 475 kts | 72° |
| 2026-05-06 19:25 | 51.93957 | 1.40494 | 28993 ft | 475 kts | 72° |
| 2026-05-06 19:26 | 51.95828 | 1.50416 | 28992 ft | 475 kts | 72° |
| 2026-05-06 19:26 | 51.97681 | 1.60305 | 28990 ft | 475 kts | 72° |
| 2026-05-06 19:27 | 51.99479 | 1.70237 | 28994 ft | 475 kts | 75° |
| 2026-05-06 19:27 | 52.00276 | 1.75216 | 28817 ft | 475 kts | 75° |
| 2026-05-06 19:27 | 52.01058 | 1.80244 | 28525 ft | 473 kts | 76° |
| 2026-05-06 19:27 | 52.01805 | 1.85092 | 28208 ft | 471 kts | 76° |
| 2026-05-06 19:28 | 52.02574 | 1.90096 | 27767 ft | 468 kts | 76° |
| 2026-05-06 19:28 | 52.03334 | 1.95039 | 27225 ft | 467 kts | 76° |
| 2026-05-06 19:28 | 52.04096 | 2.00004 | 26577 ft | 468 kts | 76° |
| 2026-05-06 19:28 | 52.04869 | 2.05050 | 25914 ft | 468 kts | 76° |
| 2026-05-06 19:29 | 52.05616 | 2.09933 | 25370 ft | 466 kts | 76° |
| 2026-05-06 19:29 | 52.06349 | 2.14743 | 24962 ft | 461 kts | 76° |
| 2026-05-06 19:29 | 52.07086 | 2.19596 | 24534 ft | 457 kts | 76° |
| 2026-05-06 19:29 | 52.07814 | 2.24402 | 24113 ft | 453 kts | 76° |
| 2026-05-06 19:30 | 52.08539 | 2.29200 | 23668 ft | 450 kts | 76° |
| 2026-05-06 19:30 | 52.09219 | 2.33718 | 23198 ft | 447 kts | 76° |
| 2026-05-06 19:30 | 52.09923 | 2.38413 | 22738 ft | 443 kts | 76° |
| 2026-05-06 19:30 | 52.10626 | 2.43059 | 22296 ft | 439 kts | 75° |
| 2026-05-06 19:31 | 52.11508 | 2.47573 | 21862 ft | 434 kts | 69° |
| 2026-05-06 19:31 | 52.12627 | 2.51831 | 21457 ft | 431 kts | 63° |
| 2026-05-06 19:31 | 52.15423 | 2.59892 | 20731 ft | 418 kts | 58° |
| 2026-05-06 19:32 | 52.16807 | 2.63803 | 20381 ft | 412 kts | 62° |
| 2026-05-06 19:32 | 52.17957 | 2.67802 | 20062 ft | 405 kts | 65° |
| 2026-05-06 19:32 | 52.19028 | 2.71831 | 19758 ft | 399 kts | 66° |
| 2026-05-06 19:32 | 52.20082 | 2.75815 | 19437 ft | 393 kts | 65° |
| 2026-05-06 19:33 | 52.21124 | 2.79717 | 19153 ft | 387 kts | 65° |
| 2026-05-06 19:33 | 52.22170 | 2.83589 | 18872 ft | 382 kts | 65° |
| 2026-05-06 19:33 | 52.23216 | 2.87435 | 18588 ft | 381 kts | 65° |
| 2026-05-06 19:33 | 52.24249 | 2.91217 | 18322 ft | 380 kts | 65° |
| 2026-05-06 19:34 | 52.25267 | 2.94939 | 18017 ft | 377 kts | 65° |
| 2026-05-06 19:34 | 52.26309 | 2.98754 | 17692 ft | 377 kts | 64° |
| 2026-05-06 19:34 | 52.27331 | 3.02483 | 17383 ft | 375 kts | 64° |
| 2026-05-06 19:34 | 52.28359 | 3.06256 | 17069 ft | 375 kts | 64° |
| 2026-05-06 19:35 | 52.29396 | 3.10053 | 16762 ft | 372 kts | 65° |
| 2026-05-06 19:35 | 52.30385 | 3.13687 | 16462 ft | 369 kts | 64° |
| 2026-05-06 19:35 | 52.31399 | 3.17421 | 16154 ft | 369 kts | 64° |
| 2026-05-06 19:35 | 52.32401 | 3.21111 | 15853 ft | 365 kts | 64° |
| 2026-05-06 19:36 | 52.33394 | 3.24784 | 15557 ft | 365 kts | 64° |
| 2026-05-06 19:36 | 52.34385 | 3.28440 | 15256 ft | 363 kts | 65° |
| 2026-05-06 19:36 | 52.35370 | 3.32089 | 14943 ft | 361 kts | 64° |
| 2026-05-06 19:36 | 52.36355 | 3.35743 | 14558 ft | 359 kts | 64° |
| 2026-05-06 19:37 | 52.37329 | 3.39354 | 14169 ft | 357 kts | 65° |
| 2026-05-06 19:37 | 52.38298 | 3.42968 | 13797 ft | 354 kts | 64° |
| 2026-05-06 19:37 | 52.39252 | 3.46511 | 13422 ft | 350 kts | 65° |
| 2026-05-06 19:37 | 52.39871 | 3.48816 | 13197 ft | 347 kts | 65° |
| 2026-05-06 19:38 | 52.41113 | 3.53458 | 12717 ft | 344 kts | 65° |
| 2026-05-06 19:38 | 52.42039 | 3.56916 | 12359 ft | 342 kts | 65° |
| 2026-05-06 19:38 | 52.42941 | 3.60297 | 12012 ft | 339 kts | 65° |
| 2026-05-06 19:38 | 52.43836 | 3.63656 | 11664 ft | 337 kts | 65° |
| 2026-05-06 19:39 | 52.44752 | 3.67095 | 11342 ft | 334 kts | 65° |
| 2026-05-06 19:39 | 52.45629 | 3.70404 | 11011 ft | 332 kts | 65° |
| 2026-05-06 19:39 | 52.46514 | 3.73738 | 10684 ft | 330 kts | 65° |
| 2026-05-06 19:39 | 52.47390 | 3.77044 | 10356 ft | 328 kts | 65° |
| 2026-05-06 19:40 | 52.48270 | 3.80376 | 10146 ft | 324 kts | 65° |
| 2026-05-06 19:40 | 52.49128 | 3.83629 | 10059 ft | 325 kts | 66° |
| 2026-05-06 19:40 | 52.50002 | 3.86950 | 10006 ft | 326 kts | 65° |
| 2026-05-06 19:40 | 52.50873 | 3.90261 | 9973 ft | 326 kts | 66° |
| 2026-05-06 19:41 | 52.51700 | 3.93571 | 9959 ft | 325 kts | 72° |
| 2026-05-06 19:41 | 52.51939 | 3.97120 | 9915 ft | 322 kts | 95° |
| 2026-05-06 19:41 | 52.51652 | 3.99353 | 9784 ft | 317 kts | 110° |
| 2026-05-06 19:41 | 52.50190 | 4.03004 | 9541 ft | 305 kts | 133° |
| 2026-05-06 19:42 | 52.48810 | 4.05249 | 9366 ft | 297 kts | 136° |
| 2026-05-06 19:42 | 52.47860 | 4.06710 | 9253 ft | 292 kts | 137° |
| 2026-05-06 19:42 | 52.46456 | 4.08833 | 8997 ft | 287 kts | 137° |
| 2026-05-06 19:42 | 52.45058 | 4.10913 | 8635 ft | 286 kts | 137° |
| 2026-05-06 19:43 | 52.43657 | 4.12975 | 8276 ft | 285 kts | 137° |
| 2026-05-06 19:43 | 52.42266 | 4.15023 | 7980 ft | 283 kts | 137° |
| 2026-05-06 19:43 | 52.40853 | 4.17090 | 7671 ft | 281 kts | 137° |
| 2026-05-06 19:43 | 52.39460 | 4.19088 | 7324 ft | 280 kts | 137° |
| 2026-05-06 19:44 | 52.38055 | 4.21081 | 7028 ft | 278 kts | 137° |
| 2026-05-06 19:44 | 52.36690 | 4.23011 | 6742 ft | 276 kts | 137° |
| 2026-05-06 19:44 | 52.35295 | 4.24972 | 6456 ft | 274 kts | 137° |
| 2026-05-06 19:44 | 52.33956 | 4.26868 | 6154 ft | 272 kts | 137° |
| 2026-05-06 19:45 | 52.32577 | 4.28792 | 5833 ft | 271 kts | 137° |
| 2026-05-06 19:45 | 52.31207 | 4.30667 | 5491 ft | 270 kts | 137° |
| 2026-05-06 19:45 | 52.29845 | 4.32557 | 5187 ft | 269 kts | 137° |
| 2026-05-06 19:45 | 52.28482 | 4.34430 | 4874 ft | 268 kts | 137° |
| 2026-05-06 19:46 | 52.27170 | 4.36246 | 4578 ft | 266 kts | 137° |
| 2026-05-06 19:46 | 52.25918 | 4.37990 | 4373 ft | 259 kts | 137° |
| 2026-05-06 19:46 | 52.24677 | 4.39694 | 4180 ft | 250 kts | 136° |
| 2026-05-06 19:46 | 52.23505 | 4.41256 | 3987 ft | 242 kts | 137° |
| 2026-05-06 19:47 | 52.22349 | 4.42787 | 3787 ft | 233 kts | 137° |
| 2026-05-06 19:47 | 52.21232 | 4.44288 | 3607 ft | 223 kts | 137° |
| 2026-05-06 19:47 | 52.20226 | 4.45679 | 3437 ft | 210 kts | 127° |
| 2026-05-06 19:47 | 52.19690 | 4.47421 | 3215 ft | 193 kts | 95° |
| 2026-05-06 19:48 | 52.19776 | 4.49297 | 2954 ft | 178 kts | 72° |
| 2026-05-06 19:48 | 52.20205 | 4.51002 | 2717 ft | 169 kts | 61° |
| 2026-05-06 19:48 | 52.20775 | 4.52567 | 2297 ft | 169 kts | 57° |
| 2026-05-06 19:48 | 52.21365 | 4.54038 | 1981 ft | 164 kts | 56° |
| 2026-05-06 19:49 | 52.21933 | 4.55465 | 1945 ft | 147 kts | 56° |
| 2026-05-06 19:49 | 52.22419 | 4.56715 | 1922 ft | 135 kts | 56° |
| 2026-05-06 19:49 | 52.22889 | 4.57935 | 1961 ft | 134 kts | 57° |
| 2026-05-06 19:49 | 52.23348 | 4.59141 | 1969 ft | 135 kts | 56° |
| 2026-05-06 19:50 | 52.23803 | 4.60338 | 1928 ft | 135 kts | 56° |
| 2026-05-06 19:50 | 52.24265 | 4.61548 | 1759 ft | 133 kts | 57° |
| 2026-05-06 19:50 | 52.24725 | 4.62759 | 1569 ft | 132 kts | 57° |
| 2026-05-06 19:50 | 52.25138 | 4.63845 | 1435 ft | 133 kts | 57° |
| 2026-05-06 19:51 | 52.25492 | 4.64775 | 1302 ft | 132 kts | 56° |
| 2026-05-06 19:51 | 52.25948 | 4.65972 | 1118 ft | 132 kts | 57° |
| 2026-05-06 19:51 | 52.26412 | 4.67189 | 954 ft | 132 kts | 56° |
| 2026-05-06 19:51 | 52.26872 | 4.68394 | 773 ft | 132 kts | 56° |
| 2026-05-06 19:52 | 52.27330 | 4.69595 | 628 ft | 133 kts | 54° |
| 2026-05-06 19:52 | 52.27796 | 4.70810 | 439 ft | 137 kts | 56° |
| 2026-05-06 19:52 | 52.28248 | 4.72008 | 291 ft | 138 kts | 54° |
| 2026-05-06 19:52 | 52.28714 | 4.73209 | 112 ft | 137 kts | 55° |
| 2026-05-06 19:53 | 52.29144 | 4.74338 | 9 ft | 132 kts | 55° |
| 2026-05-06 19:53 | 52.29498 | 4.75241 | 4 ft | 78 kts | 57° |
| 2026-05-06 19:53 | 52.29661 | 4.75659 | 7 ft | 28 kts | 50° |
| 2026-05-06 19:53 | 52.29796 | 4.75814 | 5 ft | 25 kts | 27° |
| 2026-05-06 19:54 | 52.29936 | 4.75933 | 6 ft | 25 kts | 27° |
| 2026-05-06 19:54 | 52.30044 | 4.76128 | 6 ft | 25 kts | 59° |
| 2026-05-06 19:54 | 52.30136 | 4.76361 | 6 ft | 26 kts | 57° |
| 2026-05-06 19:54 | 52.30230 | 4.76608 | 6 ft | 28 kts | 58° |
| 2026-05-06 19:55 | 52.30329 | 4.76866 | 6 ft | 29 kts | 58° |
| 2026-05-06 19:55 | 52.30434 | 4.77137 | 6 ft | 31 kts | 58° |
| 2026-05-06 19:55 | 52.30543 | 4.77421 | 6 ft | 24 kts | 58° |